• Join FlightAware (Why Join?)
  • Login
  • US Flag 
10:04PM EDT


 

Airport Tracker/Info


-or-


 

Live Flight TrackerFlight Track Log ✈ KAP46 ✈ 21-Jun-2013 ✈ KALB - KMSS

Flight Track Log - Related Links

Times and Time Zones

All times are in EDT time to prevent confusion due to time zone crossing. See the KAP46 flight status page for this flight to view local times or setup timezone preferences in your user account.

Time Position Orientation Groundspeed Altitude Reporting Facility
EDT Latitude Longitude Course Direction KTS MPH feet Rate Location/Type
06:55PM 42.7839 -73.8064 338° Northwest 120 138 1,200  Level Boston Center
06:56PM 42.8214 -73.8272 338° Northwest 142 163 1,700 540 Climbing Boston Center
06:57PM 42.8586 -73.8422 344° North 138 159 2,300 540 Climbing Boston Center
06:58PM 42.8939 -73.8569 343° North 130 150 2,900 540 Climbing Boston Center
06:59PM 42.9292 -73.8750 339° North 130 150 3,500 540 Climbing Boston Center
07:00PM 42.9642 -73.8928 340° North 133 153 4,100 480 Climbing Boston Center
07:01PM 42.9994 -73.9078 343° North 137 158 4,500 360 Climbing Boston Center
07:02PM 43.0367 -73.9258 340° North 144 166 4,900 420 Climbing Boston Center
07:03PM 43.0719 -73.9408 343° North 139 160 5,400 480 Climbing Boston Center
07:04PM 43.1092 -73.9617 338° Northwest 142 163 5,900 480 Climbing Boston Center
07:05PM 43.1508 -73.9797 342° North 142 163 6,400 300 Climbing Boston Center
07:06PM 43.1900 -73.9950 344° North 148 170 6,600 60 Climbing Boston Center
07:07PM 43.2419 -74.0219 339° North 172 198 6,600  Level Boston Center
07:08PM 43.2728 -74.0397 337° Northwest 165 190 6,700  Climbing Boston Center
07:09PM 43.3225 -74.0639 341° North 157 181 6,600 -60 Descending Boston Center
07:10PM 43.3597 -74.0822 340° North 151 174 6,600  Level Boston Center
07:11PM 43.3992 -74.0947 347° North 151 174 6,600  Level Boston Center
07:12PM 43.4447 -74.1158 341° North 151 174 6,600  Level Boston Center
07:13PM 43.4778 -74.1283 345° North 151 174 6,600 -60 Level Boston Center
07:14PM 43.5275 -74.1525 341° North 156 180 6,500  Descending Boston Center
07:15PM 43.5711 -74.1739 340° North 156 180 6,600  Climbing Boston Center
07:16PM 43.6186 -74.2011 337° Northwest 151 174 6,500  Descending Boston Center
07:17PM 43.6578 -74.2194 341° North 151 174 6,600  Climbing Boston Center
07:18PM 43.7014 -74.2378 343° North 151 174 6,600 -60 Level Boston Center
07:19PM 43.7447 -74.2564 343° North 146 168 6,500  Descending Boston Center
07:20PM 43.7819 -74.2747 340° North 146 168 6,600  Climbing Boston Center
07:21PM 43.8253 -74.2961 340° North 146 168 6,600  Level Boston Center
07:22PM 43.8689 -74.3178 340° North 151 174 6,600  Level Boston Center
07:23PM 43.9122 -74.3392 340° North 151 174 6,600  Level Boston Center
07:24PM 43.9514 -74.3636 336° Northwest 151 174 6,600  Level Boston Center
07:25PM 43.9947 -74.3911 335° Northwest 151 174 6,600 -60 Level Boston Center
07:26PM 44.0342 -74.4067 344° North 151 174 6,500 -60 Descending Boston Center
07:27PM 44.0817 -74.4283 342° North 151 174 6,500  Level Boston Center
07:28PM 44.1250 -74.4503 340° North 151 174 6,600  Climbing Boston Center
07:29PM 44.1683 -74.4689 343° North 159 183 6,500  Descending Boston Center
07:30PM 44.2139 -74.4908 341° North 159 183 6,600  Climbing Boston Center
07:31PM 44.2572 -74.5069 345° North 165 190 6,500 -60 Descending Boston Center
07:32PM 44.3028 -74.5258 343° North 165 190 6,500  Level Boston Center
07:33PM 44.3358 -74.5386 345° North 165 190 6,600 -60 Climbing Boston Center
07:34PM 44.3878 -74.5578 345° North 165 190 6,400 -360 Descending Boston Center
07:35PM 44.4394 -74.5831 341° North 165 190 5,900 -540 Descending Boston Center
07:36PM 44.4867 -74.6167 333° Northwest 170 196 5,400 -600 Descending Boston Center
07:37PM 44.5383 -74.6419 341° North 181 208 4,800 -360 Descending Boston Center
07:38PM 44.5878 -74.6700 338° Northwest 181 208 4,700 840 Descending Boston Center
07:39PM 44.6353 -74.6922 342° North 181 208 6,500 1,800 Climbing Boston Center